YXGE weather

Glen Innes - Rugby Park Heliport
Glen Innes, New South Wales, Australia

Public forecast

Using degrees Celsius for public forecast. Weather courtesy of forecast.io.

METAR (pilot weather report)

Closest report is Grafton Airport, 67.5 nm (124.9 km) E. Retrieved 2019/04/21 11:00 UTC (59 minutes ago):

YGFN 211100Z AUTO 21001KT 9999 // NCD 17/16 Q1023

TAF (pilot weather forecast)

Closest forecast is Tamworth Airport, 93.4 nm (173.0 km) SSW. Retrieved 2019/04/21 06:36 UTC (5 hours ago):

TAF TAF YSTW 210449Z 2106/2124 13008KT CAVOK